createdAt,value
2022-11-25T00:00:26.282Z,23.50
2022-11-25T00:01:21.142Z,23.50
2022-11-25T00:01:54.575Z,22.90
2022-11-25T00:02:27.752Z,24.30
2022-11-25T00:03:00.981Z,24.40
2022-11-25T00:03:35.609Z,24.60
2022-11-25T00:04:08.769Z,23.80
2022-11-25T00:04:42.067Z,24.30
2022-11-25T00:05:15.527Z,24.20
2022-11-25T00:05:48.935Z,25.50
2022-11-25T00:06:22.093Z,26.00
2022-11-25T00:06:55.146Z,25.30
2022-11-25T00:07:28.341Z,24.70
2022-11-25T00:08:01.511Z,24.70
2022-11-25T00:08:34.524Z,25.50
2022-11-25T00:09:08.689Z,24.00
2022-11-25T00:09:41.650Z,25.60
2022-11-25T00:10:14.963Z,24.60
2022-11-25T00:10:48.168Z,23.80
2022-11-25T00:11:21.413Z,24.00
2022-11-25T00:11:54.523Z,25.40
2022-11-25T00:12:27.821Z,24.60
2022-11-25T00:13:01.201Z,24.50
2022-11-25T00:13:34.942Z,25.40
2022-11-25T00:14:10.721Z,25.90
2022-11-25T00:14:43.768Z,26.10
2022-11-25T00:15:16.918Z,25.70
2022-11-25T00:15:49.973Z,24.70
2022-11-25T00:16:24.694Z,27.20
2022-11-25T00:16:57.809Z,27.80
2022-11-25T00:17:30.918Z,27.60
2022-11-25T00:18:04.118Z,27.80
2022-11-25T00:18:37.185Z,26.50
2022-11-25T00:19:10.346Z,27.70
2022-11-25T00:19:43.347Z,27.20
2022-11-25T00:20:16.651Z,26.70
2022-11-25T00:20:49.781Z,26.90
2022-11-25T00:21:24.373Z,26.30
2022-11-25T00:21:57.630Z,25.10
2022-11-25T00:22:30.724Z,24.70
2022-11-25T00:23:03.877Z,26.30
2022-11-25T00:23:37.710Z,25.30
2022-11-25T00:24:13.096Z,24.70
2022-11-25T00:24:46.278Z,26.30
2022-11-25T00:25:19.541Z,26.10
2022-11-25T00:25:52.694Z,27.70
2022-11-25T00:26:26.413Z,27.40
2022-11-25T00:26:59.659Z,27.30
2022-11-25T00:27:32.830Z,27.70
2022-11-25T00:28:06.153Z,27.30
2022-11-25T00:28:39.675Z,26.60
2022-11-25T00:29:14.465Z,26.90
2022-11-25T00:29:47.821Z,28.10
2022-11-25T00:30:21.048Z,26.60
2022-11-25T00:30:54.059Z,27.30
2022-11-25T00:31:28.240Z,27.30
2022-11-25T00:32:01.562Z,26.90
2022-11-25T00:32:34.681Z,27.60
2022-11-25T00:33:07.826Z,26.70
2022-11-25T00:33:41.332Z,26.20
2022-11-25T00:34:14.926Z,27.80
2022-11-25T00:34:48.266Z,25.20
2022-11-25T00:35:21.667Z,27.30
2022-11-25T00:35:54.845Z,25.40
2022-11-25T00:36:32.101Z,27.00
2022-11-25T00:37:05.207Z,26.10
2022-11-25T00:37:38.242Z,26.40
2022-11-25T00:38:11.412Z,25.70
2022-11-25T00:38:44.880Z,26.30
2022-11-25T00:39:18.735Z,26.80
2022-11-25T00:39:52.224Z,26.10
2022-11-25T00:40:25.691Z,26.20
2022-11-25T00:41:17.247Z,26.80
2022-11-25T00:42:08.971Z,27.70
2022-11-25T00:43:00.748Z,25.50
2022-11-25T00:43:52.424Z,26.50
2022-11-25T00:44:38.408Z,27.10
2022-11-25T00:45:12.267Z,27.70
2022-11-25T00:45:45.360Z,27.00
2022-11-25T00:46:18.655Z,26.30
2022-11-25T00:46:51.935Z,25.60
2022-11-25T00:47:24.999Z,26.30
2022-11-25T00:47:58.376Z,25.00
2022-11-25T00:48:31.618Z,24.80
2022-11-25T00:49:05.048Z,25.20
2022-11-25T00:49:39.494Z,25.50
2022-11-25T00:50:12.615Z,24.10
2022-11-25T00:50:45.788Z,24.90
2022-11-25T00:51:19.123Z,24.40
2022-11-25T00:51:52.199Z,25.50
2022-11-25T00:52:28.223Z,25.70
2022-11-25T00:53:01.327Z,24.90
2022-11-25T00:53:34.553Z,26.20
2022-11-25T00:54:07.647Z,25.60
2022-11-25T00:54:40.927Z,26.00
2022-11-25T00:55:14.520Z,26.90
2022-11-25T00:56:06.306Z,25.30
2022-11-25T00:56:39.961Z,26.10
2022-11-25T00:57:12.974Z,26.80
2022-11-25T00:57:46.040Z,26.10
2022-11-25T00:58:19.119Z,27.70
2022-11-25T00:58:53.184Z,26.20
2022-11-25T00:59:26.443Z,26.40
2022-11-25T00:59:59.638Z,27.10
2022-11-25T01:00:32.725Z,27.00
2022-11-25T01:01:06.231Z,26.20
2022-11-25T01:01:39.753Z,25.30
2022-11-25T01:02:13.753Z,27.10
2022-11-25T01:02:48.471Z,25.80
2022-11-25T01:03:21.631Z,26.50
2022-11-25T01:03:54.772Z,26.30
2022-11-25T01:04:27.937Z,25.30
2022-11-25T01:05:01.016Z,27.40
2022-11-25T01:05:34.155Z,26.90
2022-11-25T01:06:08.526Z,26.20
2022-11-25T01:06:41.715Z,27.60
2022-11-25T01:07:15.655Z,28.10
2022-11-25T01:07:49.069Z,27.60
2022-11-25T01:08:22.507Z,28.00
2022-11-25T01:08:55.669Z,27.50
2022-11-25T01:09:28.914Z,27.10
2022-11-25T01:10:02.194Z,27.70
2022-11-25T01:10:35.382Z,28.60
2022-11-25T01:11:11.016Z,28.00
2022-11-25T01:11:44.138Z,29.50
2022-11-25T01:12:17.814Z,27.70
2022-11-25T01:12:51.083Z,26.60
2022-11-25T01:13:24.275Z,26.80
2022-11-25T01:14:01.462Z,27.50
2022-11-25T01:14:35.569Z,27.50
2022-11-25T01:15:09.351Z,26.70
2022-11-25T01:15:42.580Z,27.70
2022-11-25T01:16:17.659Z,26.80
2022-11-25T01:16:51.086Z,28.30
2022-11-25T01:17:24.200Z,27.10
2022-11-25T01:17:57.311Z,26.70
2022-11-25T01:18:30.741Z,27.40
2022-11-25T01:19:04.549Z,28.40
2022-11-25T01:19:40.809Z,27.80
2022-11-25T01:20:15.948Z,26.80
2022-11-25T01:20:48.955Z,27.80
2022-11-25T01:21:23.236Z,27.30
2022-11-25T01:21:56.402Z,28.20
2022-11-25T01:22:29.526Z,28.80
2022-11-25T01:23:02.565Z,30.30
2022-11-25T01:23:36.115Z,30.10
2022-11-25T01:24:12.167Z,28.20
2022-11-25T01:24:45.326Z,28.60
2022-11-25T01:25:18.447Z,29.50
2022-11-25T01:25:51.511Z,29.40
2022-11-25T01:26:25.434Z,29.10
2022-11-25T01:26:58.941Z,29.70
2022-11-25T01:27:32.215Z,27.30
2022-11-25T01:28:05.652Z,29.00
2022-11-25T01:28:39.205Z,29.00
2022-11-25T01:29:13.460Z,29.30
2022-11-25T01:29:46.451Z,28.90
2022-11-25T01:30:19.461Z,29.70
2022-11-25T01:31:02.707Z,29.20
2022-11-25T01:31:36.878Z,27.90
2022-11-25T01:32:10.186Z,28.50
2022-11-25T01:32:43.457Z,29.40
2022-11-25T01:33:17.710Z,29.10
2022-11-25T01:33:58.211Z,29.20
2022-11-25T01:34:32.811Z,29.10
2022-11-25T01:35:06.230Z,28.60
2022-11-25T01:35:39.498Z,28.90
2022-11-25T01:36:14.076Z,29.30
2022-11-25T01:36:47.788Z,28.60
2022-11-25T01:37:20.972Z,30.70
2022-11-25T01:37:54.141Z,29.60
2022-11-25T01:38:27.541Z,28.40
2022-11-25T01:39:01.119Z,31.10
2022-11-25T01:39:34.182Z,30.30
2022-11-25T01:40:07.821Z,29.00
2022-11-25T01:40:40.895Z,26.80
2022-11-25T01:41:14.862Z,30.10
2022-11-25T01:41:48.731Z,28.00
2022-11-25T01:42:21.986Z,27.10
2022-11-25T01:42:55.210Z,27.90
2022-11-25T01:43:28.520Z,27.80
2022-11-25T01:44:09.636Z,27.80
2022-11-25T01:44:43.499Z,27.20
2022-11-25T01:45:24.527Z,27.60
2022-11-25T01:46:11.239Z,27.90
2022-11-25T01:47:03.235Z,27.10
2022-11-25T01:47:36.403Z,28.10
2022-11-25T01:48:12.885Z,29.10
2022-11-25T01:48:50.397Z,28.20
2022-11-25T01:49:32.373Z,28.40
2022-11-25T01:50:09.992Z,28.50
2022-11-25T01:50:43.996Z,28.80
2022-11-25T01:51:27.774Z,27.50
2022-11-25T01:52:10.278Z,28.40
2022-11-25T01:52:46.364Z,28.60
2022-11-25T01:53:20.857Z,27.40
2022-11-25T01:53:56.294Z,28.00
2022-11-25T01:54:31.177Z,27.40
2022-11-25T01:55:11.225Z,26.60
2022-11-25T01:55:48.246Z,26.40
2022-11-25T01:56:22.338Z,25.60
2022-11-25T01:57:04.104Z,26.80
2022-11-25T01:57:56.174Z,26.40
2022-11-25T01:58:31.567Z,24.30
2022-11-25T01:59:04.932Z,25.00
2022-11-25T01:59:40.418Z,25.30
2022-11-25T02:00:14.147Z,25.50
2022-11-25T02:00:51.620Z,25.40
2022-11-25T02:01:24.920Z,26.20
2022-11-25T02:01:59.563Z,27.50
2022-11-25T02:02:32.798Z,26.30
2022-11-25T02:03:08.120Z,27.40
2022-11-25T02:03:43.379Z,27.50
2022-11-25T02:04:17.384Z,26.30
2022-11-25T02:04:55.399Z,28.10
2022-11-25T02:05:40.656Z,25.90
2022-11-25T02:06:22.973Z,27.00
2022-11-25T02:06:59.990Z,28.50
2022-11-25T02:07:35.339Z,27.40
2022-11-25T02:08:08.994Z,26.70
2022-11-25T02:08:43.808Z,27.50
2022-11-25T02:09:18.194Z,27.60
2022-11-25T02:09:51.271Z,27.50
2022-11-25T02:10:29.988Z,25.00
2022-11-25T02:11:06.339Z,26.50
2022-11-25T02:11:40.838Z,26.60
2022-11-25T02:12:14.582Z,25.70
2022-11-25T02:12:48.187Z,24.50
2022-11-25T02:13:22.257Z,27.30
2022-11-25T02:13:55.316Z,27.60
2022-11-25T02:14:28.438Z,26.40
2022-11-25T02:15:01.874Z,27.40
2022-11-25T02:15:35.579Z,26.50
2022-11-25T02:16:09.025Z,26.70
2022-11-25T02:16:42.189Z,27.20
2022-11-25T02:17:15.502Z,26.90
2022-11-25T02:17:50.502Z,26.40
2022-11-25T02:18:23.821Z,26.50
2022-11-25T02:18:56.888Z,28.70
2022-11-25T02:19:35.109Z,28.50
2022-11-25T02:20:09.990Z,29.20
2022-11-25T02:20:43.126Z,27.90
2022-11-25T02:21:22.358Z,27.20
2022-11-25T02:22:00.320Z,26.80
2022-11-25T02:22:33.515Z,25.40
2022-11-25T02:23:12.519Z,28.10
2022-11-25T02:23:51.585Z,26.10
2022-11-25T02:24:40.109Z,24.80
2022-11-25T02:25:16.558Z,26.40
2022-11-25T02:25:49.874Z,26.00
2022-11-25T02:26:23.007Z,25.70
2022-11-25T02:26:56.288Z,26.00
2022-11-25T02:27:29.436Z,26.00
2022-11-25T02:28:07.928Z,26.20
2022-11-25T02:28:41.091Z,26.10
2022-11-25T02:29:14.293Z,26.90
2022-11-25T02:29:47.816Z,26.60
2022-11-25T02:30:21.092Z,25.10
2022-11-25T02:30:54.424Z,25.80
2022-11-25T02:31:27.505Z,25.20
2022-11-25T02:32:00.833Z,26.30
2022-11-25T02:32:33.941Z,25.30
2022-11-25T02:33:07.179Z,26.50
2022-11-25T02:33:40.378Z,26.70
2022-11-25T02:34:13.553Z,28.40
2022-11-25T02:34:47.961Z,26.60
2022-11-25T02:35:28.957Z,26.70
2022-11-25T02:36:36.275Z,24.40
2022-11-25T02:37:09.378Z,24.10
2022-11-25T02:37:42.461Z,24.70
2022-11-25T02:38:20.996Z,24.80
2022-11-25T02:38:56.114Z,23.20
2022-11-25T02:39:29.339Z,22.00
2022-11-25T02:40:03.039Z,22.50
2022-11-25T02:40:50.460Z,21.90
2022-11-25T02:41:33.736Z,20.90
2022-11-25T02:42:07.190Z,20.70
2022-11-25T02:42:41.283Z,20.70
2022-11-25T02:43:14.395Z,20.50
2022-11-25T02:43:47.479Z,21.00
2022-11-25T02:44:20.860Z,19.80
2022-11-25T02:44:53.968Z,20.50
2022-11-25T02:45:33.156Z,19.90
2022-11-25T02:46:11.210Z,21.00
2022-11-25T02:46:44.534Z,20.60
2022-11-25T02:47:18.228Z,21.90
2022-11-25T02:47:51.601Z,20.30
2022-11-25T02:48:45.717Z,20.30
2022-11-25T02:49:18.660Z,19.80
2022-11-25T02:49:51.874Z,19.60
2022-11-25T02:50:25.703Z,19.70
2022-11-25T02:50:58.816Z,20.30
2022-11-25T02:51:32.335Z,18.80
2022-11-25T02:52:05.377Z,20.50
2022-11-25T02:52:38.514Z,19.60
2022-11-25T02:53:11.738Z,19.10
2022-11-25T02:53:45.424Z,19.40
2022-11-25T02:54:18.842Z,19.70
2022-11-25T02:54:52.021Z,20.30
2022-11-25T02:55:25.249Z,20.30
2022-11-25T02:55:58.552Z,20.30
2022-11-25T02:56:34.100Z,20.70
2022-11-25T02:57:07.211Z,21.10
2022-11-25T02:57:40.355Z,21.40
2022-11-25T02:58:13.733Z,20.20
2022-11-25T02:58:46.802Z,21.50
2022-11-25T02:59:19.970Z,22.00
2022-11-25T02:59:53.245Z,22.60
2022-11-25T03:00:26.374Z,22.60
2022-11-25T03:00:59.583Z,22.10
2022-11-25T03:01:33.111Z,20.50
2022-11-25T03:02:06.300Z,21.60
2022-11-25T03:02:39.934Z,21.80
2022-11-25T03:03:13.541Z,20.50
2022-11-25T03:03:46.832Z,20.40
2022-11-25T03:04:19.972Z,21.20
2022-11-25T03:04:53.019Z,20.00
2022-11-25T03:05:26.117Z,21.10
2022-11-25T03:05:59.235Z,21.10
2022-11-25T03:06:32.414Z,22.20
2022-11-25T03:07:05.544Z,21.20
2022-11-25T03:07:38.788Z,22.50
2022-11-25T03:08:12.215Z,22.20
2022-11-25T03:08:45.462Z,22.20
2022-11-25T03:09:18.587Z,21.70
2022-11-25T03:09:51.979Z,21.70
2022-11-25T03:10:25.192Z,21.90
2022-11-25T03:10:58.239Z,22.10
2022-11-25T03:11:49.706Z,21.70
2022-11-25T03:12:23.066Z,21.90
2022-11-25T03:12:56.227Z,21.50
2022-11-25T03:13:29.425Z,22.00
2022-11-25T03:14:02.518Z,21.80
2022-11-25T03:14:35.926Z,21.40
2022-11-25T03:15:09.522Z,21.70
2022-11-25T03:15:42.603Z,22.00
2022-11-25T03:16:15.838Z,21.50
2022-11-25T03:16:49.019Z,21.90
2022-11-25T03:17:22.194Z,21.80
2022-11-25T03:17:55.632Z,20.90
2022-11-25T03:18:28.632Z,20.60
2022-11-25T03:19:01.798Z,20.30
2022-11-25T03:19:34.859Z,21.20
2022-11-25T03:20:08.504Z,21.10
2022-11-25T03:20:41.603Z,21.00
2022-11-25T03:21:14.750Z,20.60
2022-11-25T03:21:47.929Z,22.00
2022-11-25T03:22:21.105Z,22.00
2022-11-25T03:22:54.196Z,22.40
2022-11-25T03:23:27.393Z,22.80
2022-11-25T03:24:00.610Z,22.40
2022-11-25T03:24:33.861Z,24.80
2022-11-25T03:25:07.509Z,23.30
2022-11-25T03:25:40.639Z,23.60
2022-11-25T03:26:13.663Z,22.20
2022-11-25T03:26:46.834Z,23.00
2022-11-25T03:27:20.153Z,24.00
2022-11-25T03:27:53.546Z,23.10
2022-11-25T03:28:26.858Z,22.10
2022-11-25T03:29:00.257Z,23.00
2022-11-25T03:29:33.543Z,22.90
2022-11-25T03:30:08.331Z,22.00
2022-11-25T03:30:41.508Z,21.70
2022-11-25T03:31:14.619Z,21.90
2022-11-25T03:31:47.823Z,23.70
2022-11-25T03:32:20.979Z,21.70
2022-11-25T03:32:54.159Z,22.40
2022-11-25T03:33:27.121Z,22.60
2022-11-25T03:34:00.193Z,22.60
2022-11-25T03:34:33.326Z,22.10
2022-11-25T03:35:06.706Z,20.80
2022-11-25T03:35:39.736Z,21.00
2022-11-25T03:36:13.103Z,20.90
2022-11-25T03:36:46.388Z,21.30
2022-11-25T03:37:20.420Z,21.50
2022-11-25T03:37:53.722Z,20.40
2022-11-25T03:38:26.975Z,20.90
2022-11-25T03:39:00.100Z,21.90
2022-11-25T03:39:33.374Z,20.30
2022-11-25T03:40:07.176Z,20.40
2022-11-25T03:40:40.367Z,20.40
2022-11-25T03:41:13.508Z,19.80
2022-11-25T03:41:46.537Z,17.90
2022-11-25T03:42:19.685Z,19.70
2022-11-25T03:42:52.802Z,20.30
2022-11-25T03:43:25.853Z,19.00
2022-11-25T03:43:59.124Z,18.70
2022-11-25T03:44:32.329Z,18.60
2022-11-25T03:45:06.391Z,19.20
2022-11-25T03:45:39.581Z,18.80
2022-11-25T03:46:12.811Z,19.10
2022-11-25T03:46:46.038Z,19.30
2022-11-25T03:47:19.070Z,20.60
2022-11-25T03:47:52.242Z,19.90
2022-11-25T03:48:25.441Z,20.60
2022-11-25T03:48:58.626Z,21.60
2022-11-25T03:49:31.843Z,20.30
2022-11-25T03:50:05.329Z,19.30
2022-11-25T03:50:38.560Z,19.90
2022-11-25T03:51:11.765Z,19.50
2022-11-25T03:51:45.210Z,19.00
2022-11-25T03:52:18.331Z,18.60
2022-11-25T03:52:51.337Z,18.20
2022-11-25T03:53:24.431Z,18.50
2022-11-25T03:53:57.500Z,18.30
2022-11-25T03:54:30.633Z,17.50
2022-11-25T03:55:04.027Z,17.10
2022-11-25T03:55:37.116Z,17.00
2022-11-25T03:56:10.171Z,15.90
2022-11-25T03:56:43.267Z,16.00
2022-11-25T03:57:17.063Z,17.20
2022-11-25T03:57:50.133Z,16.40
2022-11-25T03:58:23.211Z,16.40
2022-11-25T03:58:56.282Z,16.40
2022-11-25T03:59:29.373Z,16.30
2022-11-25T04:00:02.588Z,16.50
2022-11-25T04:00:35.945Z,16.20
2022-11-25T04:01:09.110Z,17.10
2022-11-25T04:01:44.472Z,17.20
2022-11-25T04:02:17.848Z,16.30
2022-11-25T04:02:51.086Z,17.50
2022-11-25T04:03:24.282Z,17.60
2022-11-25T04:03:57.457Z,16.90
2022-11-25T04:04:30.757Z,17.80
2022-11-25T04:05:05.673Z,16.10
2022-11-25T04:05:38.789Z,16.80
2022-11-25T04:06:11.882Z,15.90
2022-11-25T04:06:44.912Z,16.50
2022-11-25T04:07:18.304Z,15.70
2022-11-25T04:07:57.533Z,16.20
2022-11-25T04:08:31.113Z,14.50
2022-11-25T04:09:04.157Z,15.70
2022-11-25T04:09:37.359Z,15.00
2022-11-25T04:10:10.641Z,15.40
2022-11-25T04:10:43.712Z,16.50
2022-11-25T04:11:17.092Z,16.50
2022-11-25T04:12:09.252Z,16.00
2022-11-25T04:12:47.497Z,15.30
2022-11-25T04:13:20.565Z,15.70
2022-11-25T04:13:53.628Z,16.50
2022-11-25T04:14:26.726Z,16.30
2022-11-25T04:14:59.762Z,15.30
2022-11-25T04:15:32.816Z,16.10
2022-11-25T04:16:06.062Z,15.50
2022-11-25T04:16:39.108Z,16.00
2022-11-25T04:17:12.198Z,16.50
2022-11-25T04:17:45.422Z,15.00
2022-11-25T04:18:19.244Z,15.80
2022-11-25T04:18:52.308Z,16.10
2022-11-25T04:19:25.370Z,15.00
2022-11-25T04:19:58.472Z,15.80
2022-11-25T04:20:31.505Z,16.00
2022-11-25T04:21:04.645Z,15.50
2022-11-25T04:21:37.718Z,14.20
2022-11-25T04:22:11.055Z,13.00
2022-11-25T04:22:44.217Z,15.00
2022-11-25T04:23:17.469Z,14.60
2022-11-25T04:23:50.568Z,15.50
2022-11-25T04:24:23.703Z,15.50
2022-11-25T04:24:56.941Z,14.90
2022-11-25T04:25:30.361Z,15.30
2022-11-25T04:26:03.429Z,15.70
2022-11-25T04:26:36.475Z,15.00
2022-11-25T04:27:09.602Z,15.00
2022-11-25T04:27:42.645Z,15.20
2022-11-25T04:28:15.787Z,14.70
2022-11-25T04:28:48.867Z,14.60
2022-11-25T04:29:22.044Z,15.40
2022-11-25T04:29:55.141Z,15.80
2022-11-25T04:30:28.350Z,14.30
2022-11-25T04:31:05.823Z,13.90
2022-11-25T04:31:39.169Z,13.80
2022-11-25T04:32:12.211Z,17.10
2022-11-25T04:32:45.396Z,16.20
2022-11-25T04:33:18.498Z,14.30
2022-11-25T04:33:52.804Z,14.90
2022-11-25T04:34:26.190Z,14.80
2022-11-25T04:34:59.248Z,13.80
2022-11-25T04:35:32.402Z,15.00
2022-11-25T04:36:05.647Z,14.80
2022-11-25T04:36:38.989Z,15.00
2022-11-25T04:37:11.904Z,14.30
2022-11-25T04:37:44.938Z,15.10
2022-11-25T04:38:18.167Z,14.90
2022-11-25T04:38:52.042Z,14.50
2022-11-25T04:39:25.098Z,16.20
2022-11-25T04:39:58.282Z,14.20
2022-11-25T04:40:31.450Z,14.70
2022-11-25T04:41:04.530Z,15.70
2022-11-25T04:41:37.743Z,15.10
2022-11-25T04:42:29.155Z,15.20
2022-11-25T04:43:06.203Z,15.50
2022-11-25T04:43:42.501Z,14.60
2022-11-25T04:44:15.518Z,14.20
2022-11-25T04:45:01.319Z,16.60
2022-11-25T04:46:37.754Z,15.90
2022-11-25T04:47:10.902Z,15.10
2022-11-25T04:47:44.807Z,15.70
2022-11-25T04:48:18.435Z,14.90
2022-11-25T04:48:51.632Z,15.70
2022-11-25T04:49:24.728Z,14.80
2022-11-25T04:49:57.902Z,15.00
2022-11-25T04:50:31.275Z,14.10
2022-11-25T04:51:04.598Z,14.30
2022-11-25T04:51:37.650Z,13.70
2022-11-25T04:52:10.677Z,15.30
2022-11-25T04:52:43.863Z,15.70
2022-11-25T04:53:17.227Z,16.20
2022-11-25T04:53:50.497Z,15.20
2022-11-25T04:54:23.856Z,15.90
2022-11-25T04:54:57.077Z,15.60
2022-11-25T04:55:30.109Z,14.00
2022-11-25T04:56:03.283Z,15.80
2022-11-25T04:56:36.453Z,14.60
2022-11-25T04:57:12.966Z,13.50
2022-11-25T04:57:46.053Z,13.90
2022-11-25T04:58:39.093Z,14.00
2022-11-25T04:59:30.824Z,12.80
2022-11-25T05:00:04.523Z,13.00
2022-11-25T05:00:37.842Z,13.10
2022-11-25T05:01:10.996Z,12.50
2022-11-25T05:01:44.287Z,13.10
2022-11-25T05:02:21.895Z,13.30
2022-11-25T05:02:55.180Z,13.10
2022-11-25T05:03:28.373Z,12.30
2022-11-25T05:04:01.591Z,11.90
2022-11-25T05:04:35.024Z,13.40
2022-11-25T05:05:08.478Z,13.10
2022-11-25T05:05:41.598Z,12.90
2022-11-25T05:06:14.754Z,13.30
2022-11-25T05:06:47.842Z,13.40
2022-11-25T05:07:22.099Z,12.50
2022-11-25T05:07:55.404Z,13.20
2022-11-25T05:08:28.547Z,12.60
2022-11-25T05:09:01.685Z,12.50
2022-11-25T05:09:34.979Z,13.70
2022-11-25T05:10:08.315Z,11.80
2022-11-25T05:10:41.518Z,11.70
2022-11-25T05:11:14.894Z,12.40
2022-11-25T05:11:48.018Z,11.70
2022-11-25T05:12:23.002Z,11.20
2022-11-25T05:12:56.146Z,12.60
2022-11-25T05:13:29.332Z,11.80
2022-11-25T05:14:02.445Z,11.00
2022-11-25T05:14:36.183Z,12.90
2022-11-25T05:15:09.869Z,11.20
2022-11-25T05:15:44.415Z,11.30
2022-11-25T05:16:18.422Z,12.50
2022-11-25T05:16:52.250Z,11.50
2022-11-25T05:17:27.578Z,12.10
2022-11-25T05:18:00.680Z,11.60
2022-11-25T05:18:33.875Z,11.40
2022-11-25T05:19:07.020Z,13.20
2022-11-25T05:19:40.472Z,12.30
2022-11-25T05:20:13.848Z,14.20
2022-11-25T05:20:46.929Z,12.60
2022-11-25T05:21:20.285Z,13.90
2022-11-25T05:21:53.353Z,12.90
2022-11-25T05:22:30.677Z,12.90
2022-11-25T05:23:03.796Z,13.20
2022-11-25T05:23:36.985Z,12.80
2022-11-25T05:24:10.055Z,13.20
2022-11-25T05:24:43.299Z,12.60
2022-11-25T05:25:17.261Z,12.50
2022-11-25T05:25:50.290Z,12.60
2022-11-25T05:26:23.389Z,13.50
2022-11-25T05:26:56.450Z,13.50
2022-11-25T05:27:29.590Z,12.80
2022-11-25T05:28:02.577Z,14.00
2022-11-25T05:28:35.569Z,13.30
2022-11-25T05:29:09.462Z,14.10
2022-11-25T05:29:42.737Z,14.80
2022-11-25T05:30:15.850Z,15.50
2022-11-25T05:30:48.980Z,15.20
2022-11-25T05:31:22.200Z,17.70
2022-11-25T05:31:55.376Z,16.00
2022-11-25T05:32:28.447Z,16.50
2022-11-25T05:33:01.463Z,15.10
2022-11-25T05:33:34.562Z,15.80
2022-11-25T05:34:07.799Z,14.50
2022-11-25T05:34:41.491Z,15.50
2022-11-25T05:35:14.686Z,14.60
2022-11-25T05:35:54.920Z,15.20
2022-11-25T05:36:28.688Z,14.30
2022-11-25T05:37:02.032Z,15.00
2022-11-25T05:37:35.354Z,14.30
2022-11-25T05:38:08.547Z,15.10
2022-11-25T05:38:41.795Z,15.20
2022-11-25T05:39:15.227Z,15.90
2022-11-25T05:39:48.342Z,15.50
2022-11-25T05:40:21.479Z,14.60
2022-11-25T05:41:00.074Z,15.90
2022-11-25T05:41:33.051Z,14.80
2022-11-25T05:42:06.073Z,15.20
2022-11-25T05:42:39.157Z,14.70
2022-11-25T05:43:12.501Z,15.20
2022-11-25T05:43:47.274Z,15.60
2022-11-25T05:44:23.064Z,16.90
2022-11-25T05:44:56.340Z,15.90
2022-11-25T05:45:29.449Z,17.10
2022-11-25T05:46:09.185Z,16.10
2022-11-25T05:46:44.749Z,15.50
2022-11-25T05:47:17.970Z,16.20
2022-11-25T05:47:51.070Z,16.70
2022-11-25T05:48:24.320Z,16.00
2022-11-25T05:48:57.669Z,16.40
2022-11-25T05:49:30.940Z,17.10
2022-11-25T05:50:04.139Z,17.20
2022-11-25T05:50:38.018Z,16.70
2022-11-25T05:51:11.104Z,16.30
2022-11-25T05:51:44.234Z,17.00
2022-11-25T05:52:17.261Z,17.50
2022-11-25T05:52:50.233Z,17.00
2022-11-25T05:53:23.369Z,15.90
2022-11-25T05:53:57.168Z,18.20
2022-11-25T05:54:30.363Z,17.00
2022-11-25T05:55:03.560Z,16.60
2022-11-25T05:55:36.866Z,18.80
2022-11-25T05:56:10.480Z,17.90
2022-11-25T05:56:43.506Z,16.60
2022-11-25T05:57:16.603Z,17.00
2022-11-25T05:57:49.695Z,16.50
2022-11-25T05:58:23.311Z,18.30
2022-11-25T05:58:56.684Z,17.50
2022-11-25T05:59:29.774Z,17.80
2022-11-25T06:00:03.039Z,18.40
2022-11-25T06:00:36.358Z,16.40
2022-11-25T06:01:11.066Z,18.00
2022-11-25T06:01:44.317Z,17.30
2022-11-25T06:02:17.707Z,17.90
2022-11-25T06:02:51.618Z,17.40
2022-11-25T06:03:26.253Z,16.00
2022-11-25T06:04:00.166Z,16.50
2022-11-25T06:04:33.493Z,16.80
2022-11-25T06:05:07.030Z,15.00
2022-11-25T06:05:41.437Z,16.30
2022-11-25T06:06:14.620Z,15.70
2022-11-25T06:06:47.901Z,16.30
2022-11-25T06:07:21.132Z,15.70
2022-11-25T06:07:55.012Z,16.60
2022-11-25T06:08:28.814Z,16.90
2022-11-25T06:09:02.243Z,16.90
2022-11-25T06:09:35.926Z,17.40
2022-11-25T06:10:09.366Z,18.50
2022-11-25T06:10:42.831Z,18.40
2022-11-25T06:11:17.261Z,19.40
2022-11-25T06:11:50.383Z,17.70
2022-11-25T06:12:23.880Z,19.10
2022-11-25T06:12:57.524Z,26.70
2022-11-25T06:13:31.428Z,29.00
2022-11-25T06:14:04.495Z,29.10
2022-11-25T06:14:37.808Z,28.20
2022-11-25T06:15:12.287Z,28.90
2022-11-25T06:15:46.344Z,30.60
2022-11-25T06:16:21.607Z,34.10
2022-11-25T06:16:55.125Z,32.30
2022-11-25T06:17:28.668Z,34.50
2022-11-25T06:18:02.035Z,38.40
2022-11-25T06:18:36.196Z,38.40
2022-11-25T06:19:09.394Z,40.50
2022-11-25T06:19:42.634Z,40.60
2022-11-25T06:20:15.713Z,38.90
2022-11-25T06:20:56.487Z,39.80
2022-11-25T06:22:22.298Z,34.70
2022-11-25T06:22:55.522Z,36.00
2022-11-25T06:23:28.573Z,35.90
2022-11-25T06:24:01.751Z,31.20
2022-11-25T06:24:35.043Z,30.80
2022-11-25T06:25:09.097Z,28.50
2022-11-25T06:25:42.268Z,24.90
2022-11-25T06:26:15.444Z,25.50
2022-11-25T06:26:48.919Z,24.80
2022-11-25T06:27:21.991Z,22.20
2022-11-25T06:28:12.303Z,23.00
2022-11-25T06:28:46.215Z,20.30
2022-11-25T06:29:19.350Z,19.70
2022-11-25T06:29:52.413Z,19.70
2022-11-25T06:30:25.912Z,19.60
2022-11-25T06:31:04.552Z,19.10
2022-11-25T06:31:37.727Z,19.30
2022-11-25T06:32:10.917Z,18.90
2022-11-25T06:32:44.216Z,18.70
2022-11-25T06:33:18.514Z,18.80
2022-11-25T06:33:52.290Z,18.30
2022-11-25T06:34:25.410Z,19.10
2022-11-25T06:34:58.492Z,18.60
2022-11-25T06:35:32.030Z,21.00
2022-11-25T06:36:06.793Z,20.40
2022-11-25T06:36:39.857Z,20.50
2022-11-25T06:37:13.201Z,19.90
2022-11-25T06:37:46.432Z,21.40
2022-11-25T06:38:19.433Z,21.20
2022-11-25T06:38:53.864Z,20.30
2022-11-25T06:39:27.651Z,20.60
2022-11-25T06:40:01.564Z,21.90
2022-11-25T06:40:34.767Z,20.30
2022-11-25T06:41:07.914Z,18.70
2022-11-25T06:41:41.014Z,20.90
2022-11-25T06:42:14.259Z,20.80
2022-11-25T06:42:47.463Z,19.80
2022-11-25T06:43:20.586Z,19.20
2022-11-25T06:43:53.840Z,18.90
2022-11-25T06:44:27.065Z,19.40
2022-11-25T06:45:00.225Z,20.00
2022-11-25T06:45:33.773Z,20.00
2022-11-25T06:46:10.955Z,20.20
2022-11-25T06:46:44.310Z,20.60
2022-11-25T06:47:17.442Z,19.30
2022-11-25T06:47:50.621Z,20.50
2022-11-25T06:48:24.023Z,21.00
2022-11-25T06:48:59.284Z,20.90
2022-11-25T06:49:32.991Z,21.30
2022-11-25T06:50:06.720Z,21.20
2022-11-25T06:50:39.905Z,22.60
2022-11-25T06:51:14.162Z,21.10
2022-11-25T06:51:49.176Z,22.10
2022-11-25T06:52:22.646Z,21.10
2022-11-25T06:52:55.692Z,20.80
2022-11-25T06:53:28.915Z,20.70
2022-11-25T06:54:01.995Z,20.50
2022-11-25T06:54:35.686Z,27.40
2022-11-25T06:55:09.210Z,25.00
2022-11-25T06:55:42.682Z,24.60
2022-11-25T06:56:20.388Z,23.60
2022-11-25T06:56:54.160Z,22.40
2022-11-25T06:57:27.291Z,20.80
2022-11-25T06:58:20.524Z,20.50
2022-11-25T06:58:53.930Z,19.80
2022-11-25T06:59:27.016Z,19.60
2022-11-25T07:00:00.292Z,20.40
2022-11-25T07:00:33.587Z,19.80
2022-11-25T07:01:08.543Z,20.00
2022-11-25T07:01:41.789Z,20.50
2022-11-25T07:02:15.165Z,19.50
2022-11-25T07:02:49.037Z,18.90
2022-11-25T07:03:22.637Z,19.40
2022-11-25T07:03:59.968Z,19.20
2022-11-25T07:04:34.759Z,18.00
2022-11-25T07:05:08.402Z,18.70
2022-11-25T07:05:41.459Z,19.30
2022-11-25T07:06:15.536Z,19.70
2022-11-25T07:06:49.391Z,19.40
2022-11-25T07:07:22.431Z,17.20
2022-11-25T07:07:55.770Z,17.90
2022-11-25T07:08:33.698Z,17.90
2022-11-25T07:09:07.650Z,18.80
2022-11-25T07:09:40.764Z,17.80
2022-11-25T07:10:13.993Z,18.70
2022-11-25T07:10:47.020Z,18.50
2022-11-25T07:11:22.267Z,19.60
2022-11-25T07:11:55.439Z,18.30
2022-11-25T07:12:28.547Z,20.00
2022-11-25T07:13:01.818Z,20.30
2022-11-25T07:13:35.098Z,19.30
2022-11-25T07:14:11.071Z,19.30
2022-11-25T07:14:44.211Z,21.40
2022-11-25T07:15:17.604Z,19.80
2022-11-25T07:15:50.870Z,19.90
2022-11-25T07:16:24.280Z,19.60
2022-11-25T07:16:57.476Z,21.00
2022-11-25T07:17:30.700Z,21.00
2022-11-25T07:18:03.897Z,19.50
2022-11-25T07:18:37.848Z,20.90
2022-11-25T07:19:12.319Z,20.60
2022-11-25T07:19:45.847Z,21.20
2022-11-25T07:20:19.090Z,20.00
2022-11-25T07:20:52.128Z,20.70
2022-11-25T07:21:25.788Z,20.20
2022-11-25T07:21:59.256Z,19.80
2022-11-25T07:22:32.405Z,21.30
2022-11-25T07:23:05.684Z,21.70
2022-11-25T07:23:38.827Z,21.60
2022-11-25T07:24:13.336Z,21.10